createdAt,value
2022-09-11T00:01:00.924Z,6.22
2022-09-11T00:03:29.975Z,7.00
2022-09-11T00:06:02.412Z,3.45
2022-09-11T00:08:31.592Z,6.63
2022-09-11T00:11:05.247Z,2.03
2022-09-11T00:13:33.334Z,8.55
2022-09-11T00:16:05.932Z,3.78
2022-09-11T00:18:36.036Z,2.95
2022-09-11T00:21:05.519Z,3.28
2022-09-11T00:23:33.435Z,3.30
2022-09-11T00:26:03.326Z,5.13
2022-09-11T00:28:31.826Z,5.00
2022-09-11T00:31:02.834Z,6.03
2022-09-11T00:33:31.113Z,2.95
2022-09-11T00:36:01.255Z,4.45
2022-09-11T00:38:30.596Z,4.30
2022-09-11T00:41:00.311Z,3.33
2022-09-11T00:43:30.387Z,3.45
2022-09-11T00:46:01.171Z,3.63
2022-09-11T00:48:35.437Z,3.45
2022-09-11T00:51:05.324Z,2.47
2022-09-11T00:53:36.767Z,5.90
2022-09-11T00:56:08.142Z,4.85
2022-09-11T00:58:40.339Z,5.63
2022-09-11T01:01:09.004Z,2.63
2022-09-11T01:03:38.298Z,3.45
2022-09-11T01:06:07.046Z,3.80
2022-09-11T01:08:38.217Z,5.25
2022-09-11T01:11:17.953Z,5.05
2022-09-11T01:13:53.097Z,3.72
2022-09-11T01:16:28.824Z,3.70
2022-09-11T01:19:04.967Z,2.42
2022-09-11T01:21:52.524Z,8.57
2022-09-11T01:24:50.136Z,6.47
2022-09-11T01:27:44.317Z,9.70
2022-09-11T01:30:15.712Z,2.83
2022-09-11T01:33:12.226Z,5.15
2022-09-11T01:35:50.354Z,8.15
2022-09-11T01:38:25.082Z,6.85
2022-09-11T01:40:55.585Z,5.35
2022-09-11T01:43:28.959Z,3.47
2022-09-11T01:46:00.133Z,3.65
2022-09-11T01:48:32.770Z,5.45
2022-09-11T01:51:02.571Z,7.53
2022-09-11T01:53:34.663Z,4.95
2022-09-11T01:56:06.540Z,6.70
2022-09-11T01:58:37.273Z,7.80
2022-09-11T02:01:09.674Z,7.30
2022-09-11T02:03:40.630Z,4.90
2022-09-11T02:06:13.246Z,9.60
2022-09-11T02:08:47.050Z,6.05
2022-09-11T02:11:16.306Z,4.57
2022-09-11T02:13:56.867Z,6.32
2022-09-11T02:16:36.122Z,3.95
2022-09-11T02:19:06.392Z,4.10
2022-09-11T02:21:35.667Z,7.10
2022-09-11T02:24:04.802Z,3.63
2022-09-11T02:26:35.664Z,7.30
2022-09-11T02:29:05.430Z,8.38
2022-09-11T02:31:34.333Z,6.00
2022-09-11T02:34:02.202Z,6.47
2022-09-11T02:36:47.067Z,9.05
2022-09-11T02:39:31.067Z,4.72
2022-09-11T02:42:25.768Z,5.78
2022-09-11T02:45:05.720Z,8.00
2022-09-11T02:47:46.013Z,8.20
2022-09-11T02:50:23.665Z,6.40
2022-09-11T02:52:59.607Z,8.20
2022-09-11T02:55:35.814Z,5.63
2022-09-11T02:58:09.179Z,5.47
2022-09-11T03:00:39.223Z,8.82
2022-09-11T03:03:07.450Z,6.22
2022-09-11T03:05:37.230Z,5.28
2022-09-11T03:08:05.255Z,9.73
2022-09-11T03:10:33.363Z,4.55
2022-09-11T03:13:01.186Z,5.60
2022-09-11T03:15:29.015Z,11.00
2022-09-11T03:17:58.640Z,6.30
2022-09-11T03:20:26.508Z,9.23
2022-09-11T03:22:54.337Z,9.23
2022-09-11T03:25:23.603Z,4.43
2022-09-11T03:27:51.508Z,3.80
2022-09-11T03:30:19.608Z,8.95
2022-09-11T03:32:48.065Z,6.47
2022-09-11T03:35:17.257Z,6.63
2022-09-11T03:37:47.457Z,8.60
2022-09-11T03:40:15.478Z,7.03
2022-09-11T03:42:43.395Z,5.35
2022-09-11T03:45:11.995Z,4.57
2022-09-11T03:47:40.509Z,9.13
2022-09-11T03:50:09.635Z,5.53
2022-09-11T03:52:39.590Z,8.02
2022-09-11T03:55:08.616Z,6.28
2022-09-11T03:57:37.384Z,7.30
2022-09-11T04:00:06.536Z,7.95
2022-09-11T04:02:34.431Z,6.70
2022-09-11T04:05:03.606Z,5.85
2022-09-11T04:07:31.972Z,5.45
2022-09-11T04:10:01.238Z,5.78
2022-09-11T04:12:29.098Z,12.27
2022-09-11T04:14:57.033Z,4.85
2022-09-11T04:17:25.078Z,5.70
2022-09-11T04:19:53.666Z,6.03
2022-09-11T04:22:21.522Z,5.55
2022-09-11T04:24:49.346Z,6.97
2022-09-11T04:27:19.014Z,5.82
2022-09-11T04:29:47.148Z,9.65
2022-09-11T04:32:16.095Z,5.68
2022-09-11T04:34:43.936Z,5.40
2022-09-11T04:37:12.323Z,6.00
2022-09-11T04:39:40.163Z,8.13
2022-09-11T04:42:08.298Z,8.75
2022-09-11T04:44:37.673Z,4.93
2022-09-11T04:47:05.914Z,6.80
2022-09-11T04:49:33.996Z,8.35
2022-09-11T04:52:05.911Z,5.00
2022-09-11T04:54:34.863Z,5.32
2022-09-11T04:57:03.730Z,6.88
2022-09-11T04:59:31.711Z,7.82
2022-09-11T05:02:01.015Z,6.13
2022-09-11T05:04:28.845Z,6.38
2022-09-11T05:06:56.711Z,9.60
2022-09-11T05:09:25.177Z,6.35
2022-09-11T05:11:53.059Z,7.60
2022-09-11T05:14:20.886Z,12.38
2022-09-11T05:16:48.796Z,8.45
2022-09-11T05:19:18.916Z,9.82
2022-09-11T05:21:46.815Z,6.35
2022-09-11T05:24:14.694Z,8.15
2022-09-11T05:26:42.573Z,7.57
2022-09-11T05:29:13.779Z,7.53
2022-09-11T05:31:42.277Z,5.90
2022-09-11T05:34:10.330Z,7.60
2022-09-11T05:36:39.526Z,5.78
2022-09-11T05:39:07.351Z,6.78
2022-09-11T05:41:35.206Z,8.70
2022-09-11T05:44:03.624Z,7.55
2022-09-11T05:46:31.487Z,5.97
2022-09-11T05:48:59.803Z,8.20
2022-09-11T05:51:27.667Z,6.88
2022-09-11T05:53:58.081Z,6.97
2022-09-11T05:56:28.138Z,8.85
2022-09-11T05:58:56.370Z,6.05
2022-09-11T06:01:26.102Z,7.90
2022-09-11T06:03:54.254Z,7.03
2022-09-11T06:06:23.898Z,9.68
2022-09-11T06:08:53.112Z,7.85
2022-09-11T06:11:23.052Z,6.90
2022-09-11T06:13:51.511Z,8.70
2022-09-11T06:16:21.581Z,6.57
2022-09-11T06:18:50.642Z,5.63
2022-09-11T06:21:20.490Z,6.47
2022-09-11T06:23:49.167Z,7.60
2022-09-11T06:26:18.962Z,9.93
2022-09-11T06:28:48.363Z,7.38
2022-09-11T06:31:18.443Z,6.85
2022-09-11T06:33:47.473Z,6.50
2022-09-11T06:36:17.400Z,9.07
2022-09-11T06:38:45.952Z,7.25
2022-09-11T06:41:16.018Z,6.85
2022-09-11T06:43:44.923Z,8.77
2022-09-11T06:46:15.825Z,8.45
2022-09-11T06:48:45.122Z,10.35
2022-09-11T06:51:14.885Z,10.13
2022-09-11T06:53:43.452Z,12.00
2022-09-11T06:56:13.306Z,8.73
2022-09-11T06:58:41.470Z,9.48
2022-09-11T07:01:12.153Z,10.10
2022-09-11T07:03:43.969Z,8.10
2022-09-11T07:06:11.929Z,8.65
2022-09-11T07:08:40.118Z,12.65
2022-09-11T07:11:08.866Z,9.98
2022-09-11T07:13:38.322Z,9.90
2022-09-11T07:16:08.669Z,11.90
2022-09-11T07:18:37.198Z,8.30
2022-09-11T07:21:11.216Z,10.60
2022-09-11T07:23:39.889Z,14.15
2022-09-11T07:26:10.788Z,8.65
2022-09-11T07:28:39.680Z,8.85
2022-09-11T07:31:11.010Z,9.02
2022-09-11T07:33:39.866Z,10.43
2022-09-11T07:36:11.746Z,8.25
2022-09-11T07:38:40.880Z,9.05
2022-09-11T07:41:09.725Z,14.68
2022-09-11T07:43:37.880Z,9.40
2022-09-11T07:46:07.083Z,11.82
2022-09-11T07:48:34.998Z,11.10
2022-09-11T07:51:05.020Z,10.60
2022-09-11T07:53:35.421Z,11.60
2022-09-11T07:56:04.743Z,13.15
2022-09-11T07:58:34.909Z,10.07
2022-09-11T08:01:03.566Z,12.25
2022-09-11T08:03:31.454Z,9.60
2022-09-11T08:06:00.040Z,10.55
2022-09-11T08:08:29.284Z,13.50
2022-09-11T08:11:02.853Z,16.67
2022-09-11T08:13:30.927Z,9.63
2022-09-11T08:15:58.759Z,10.45
2022-09-11T08:18:26.718Z,11.95
2022-09-11T08:20:55.241Z,13.82
2022-09-11T08:23:23.041Z,12.65
2022-09-11T08:25:51.556Z,9.43
2022-09-11T08:28:20.743Z,9.07
2022-09-11T08:30:48.625Z,9.07
2022-09-11T08:33:16.721Z,13.75
2022-09-11T08:35:45.305Z,7.95
2022-09-11T08:38:14.094Z,8.10
2022-09-11T08:40:41.983Z,11.20
2022-09-11T08:43:19.247Z,8.23
2022-09-11T08:45:51.559Z,12.13
2022-09-11T08:48:22.763Z,11.55
2022-09-11T08:50:50.656Z,11.70
2022-09-11T08:53:19.707Z,9.23
2022-09-11T08:55:51.387Z,13.80
2022-09-11T08:58:30.738Z,16.38
2022-09-11T09:01:12.307Z,9.13
2022-09-11T09:04:02.125Z,9.15
2022-09-11T09:06:55.224Z,6.32
2022-09-11T09:09:35.225Z,8.52
2022-09-11T09:12:15.942Z,7.90
2022-09-11T09:15:18.397Z,10.43
2022-09-11T09:17:53.685Z,6.10
2022-09-11T09:20:27.162Z,5.95
2022-09-11T09:22:59.138Z,6.78
2022-09-11T09:25:28.678Z,8.45
2022-09-11T09:28:02.719Z,6.40
2022-09-11T09:30:42.698Z,6.22
2022-09-11T09:33:27.242Z,6.88
2022-09-11T09:35:55.459Z,7.65
2022-09-11T09:38:27.326Z,9.00
2022-09-11T09:41:09.970Z,7.70
2022-09-11T09:43:49.189Z,8.57
2022-09-11T09:46:23.884Z,8.75
2022-09-11T09:48:53.124Z,7.03
2022-09-11T09:51:20.976Z,7.40
2022-09-11T09:53:52.990Z,7.55
2022-09-11T09:56:23.683Z,12.82
2022-09-11T09:59:00.920Z,7.20
2022-09-11T10:01:50.091Z,5.97
2022-09-11T10:04:23.098Z,5.50
2022-09-11T10:06:53.277Z,4.47
2022-09-11T10:09:26.475Z,6.28
2022-09-11T10:12:02.664Z,4.90
2022-09-11T10:17:23.878Z,4.25
2022-09-11T10:19:55.763Z,5.55
2022-09-11T10:22:26.987Z,5.50
2022-09-11T10:25:10.388Z,4.60
2022-09-11T10:27:45.172Z,4.90
2022-09-11T10:30:31.471Z,9.77
2022-09-11T10:33:03.534Z,5.18
2022-09-11T10:35:35.211Z,6.55
2022-09-11T10:38:15.024Z,5.57
2022-09-11T10:40:47.211Z,6.35
2022-09-11T10:43:25.025Z,4.88
2022-09-11T10:46:21.670Z,8.32
2022-09-11T10:49:00.806Z,6.80
2022-09-11T10:51:32.148Z,5.70
2022-09-11T10:54:21.928Z,5.10
2022-09-11T10:57:05.368Z,6.68
2022-09-11T10:59:42.126Z,7.97
2022-09-11T11:02:20.255Z,7.75
2022-09-11T11:04:48.679Z,5.00
2022-09-11T11:07:34.408Z,5.32
2022-09-11T11:10:15.748Z,5.97
2022-09-11T11:12:58.406Z,5.22
2022-09-11T11:15:38.614Z,7.80
2022-09-11T11:18:36.091Z,5.03
2022-09-11T11:21:15.145Z,4.50
2022-09-11T11:24:15.273Z,4.32
2022-09-11T11:26:53.488Z,5.68
2022-09-11T11:29:41.468Z,5.68
2022-09-11T11:32:20.820Z,5.47
2022-09-11T11:35:13.654Z,5.43
2022-09-11T11:37:43.185Z,7.43
2022-09-11T11:40:21.057Z,5.10
2022-09-11T11:42:56.119Z,4.45
2022-09-11T11:45:32.014Z,7.25
2022-09-11T11:48:05.166Z,6.75
2022-09-11T11:50:40.359Z,6.88
2022-09-11T11:53:13.951Z,6.90
2022-09-11T11:55:51.931Z,3.95
2022-09-11T12:00:58.062Z,3.90
2022-09-11T12:03:29.032Z,6.53
2022-09-11T12:05:56.959Z,4.00
2022-09-11T12:08:25.095Z,4.07
2022-09-11T12:10:59.506Z,3.22
2022-09-11T12:13:32.331Z,2.85
2022-09-11T12:16:11.528Z,3.55
2022-09-11T12:18:42.100Z,3.65
2022-09-11T12:21:34.715Z,4.88
2022-09-11T12:24:19.791Z,5.20
2022-09-11T12:27:11.837Z,4.40
2022-09-11T12:29:53.961Z,3.88
2022-09-11T12:32:44.013Z,5.28
2022-09-11T12:35:21.895Z,4.53
2022-09-11T12:40:32.223Z,4.90
2022-09-11T12:45:47.712Z,3.03
2022-09-11T12:48:17.208Z,3.80
2022-09-11T12:50:54.179Z,4.32
2022-09-11T12:53:27.143Z,6.95
2022-09-11T12:55:59.089Z,7.88
2022-09-11T12:58:34.094Z,4.88
2022-09-11T13:01:06.811Z,7.55
2022-09-11T13:03:35.255Z,3.85
2022-09-11T13:06:06.809Z,3.00
2022-09-11T13:08:38.490Z,3.00
2022-09-11T13:11:39.067Z,3.90
2022-09-11T13:14:47.997Z,2.33
2022-09-11T13:17:26.122Z,3.60
2022-09-11T13:19:57.962Z,2.13
2022-09-11T13:22:31.054Z,5.63
2022-09-11T13:25:12.983Z,2.88
2022-09-11T13:27:42.842Z,3.30
2022-09-11T13:30:15.794Z,4.32
2022-09-11T13:32:45.121Z,7.47
2022-09-11T13:35:17.779Z,3.75
2022-09-11T13:37:51.017Z,3.38
2022-09-11T13:40:25.571Z,3.42
2022-09-11T13:42:54.171Z,3.85
2022-09-11T13:45:27.800Z,3.72
2022-09-11T13:47:57.175Z,3.90
2022-09-11T13:50:25.313Z,3.85
2022-09-11T13:52:55.081Z,5.97
2022-09-11T13:55:26.923Z,6.70
2022-09-11T13:57:57.477Z,4.57
2022-09-11T14:00:40.737Z,5.38
2022-09-11T14:03:18.086Z,6.20
2022-09-11T14:05:51.597Z,4.72
2022-09-11T14:08:29.413Z,6.20
2022-09-11T14:10:59.650Z,5.03
2022-09-11T14:13:33.059Z,5.20
2022-09-11T14:16:05.843Z,5.30
2022-09-11T14:18:37.375Z,5.68
2022-09-11T14:21:13.436Z,6.07
2022-09-11T14:23:44.559Z,7.22
2022-09-11T14:26:17.728Z,4.90
2022-09-11T14:29:03.528Z,7.72
2022-09-11T14:31:35.951Z,4.13
2022-09-11T14:34:20.744Z,5.88
2022-09-11T14:36:52.686Z,5.70
2022-09-11T14:39:27.232Z,4.25
2022-09-11T14:41:56.178Z,5.38
2022-09-11T14:44:26.107Z,5.60
2022-09-11T14:46:56.103Z,7.47
2022-09-11T14:49:24.239Z,6.25
2022-09-11T14:51:58.089Z,6.45
2022-09-11T14:54:27.025Z,5.88
2022-09-11T14:56:54.936Z,6.60
2022-09-11T14:59:22.825Z,4.97
2022-09-11T15:01:52.201Z,7.00
2022-09-11T15:04:23.333Z,7.10
2022-09-11T15:06:53.195Z,5.28
2022-09-11T15:09:21.101Z,5.15
2022-09-11T15:11:50.402Z,5.22
2022-09-11T15:14:32.575Z,6.95
2022-09-11T15:17:08.873Z,7.18
2022-09-11T15:19:38.949Z,6.00
2022-09-11T15:22:07.569Z,9.55
2022-09-11T15:24:35.862Z,6.03
2022-09-11T15:27:04.107Z,6.97
2022-09-11T15:29:32.102Z,7.80
2022-09-11T15:32:02.059Z,8.43
2022-09-11T15:34:32.437Z,7.13
2022-09-11T15:37:02.182Z,7.38
2022-09-11T15:39:30.310Z,5.50
2022-09-11T15:41:58.521Z,5.97
2022-09-11T15:44:28.255Z,8.02
2022-09-11T15:46:57.819Z,4.70
2022-09-11T15:49:28.055Z,5.20
2022-09-11T15:51:56.509Z,5.40
2022-09-11T15:54:26.568Z,7.57
2022-09-11T15:56:54.948Z,6.47
2022-09-11T15:59:23.241Z,6.60
2022-09-11T16:01:51.190Z,7.00
2022-09-11T16:04:21.850Z,4.80
2022-09-11T16:06:54.341Z,4.97
2022-09-11T16:09:26.228Z,5.38
2022-09-11T16:11:55.182Z,4.88
2022-09-11T16:14:24.806Z,5.45
2022-09-11T16:16:53.342Z,5.15
2022-09-11T16:19:23.691Z,7.10
2022-09-11T16:21:53.296Z,5.18
2022-09-11T16:24:21.188Z,5.75
2022-09-11T16:26:50.473Z,5.55
2022-09-11T16:29:21.129Z,23.85
2022-09-11T16:31:49.457Z,8.60
2022-09-11T16:34:18.751Z,6.00
2022-09-11T16:36:47.485Z,6.22
2022-09-11T16:39:17.258Z,6.50
2022-09-11T16:41:45.114Z,5.63
2022-09-11T16:44:16.198Z,5.22
2022-09-11T16:46:45.046Z,5.25
2022-09-11T16:49:16.851Z,5.35
2022-09-11T16:51:47.352Z,6.00
2022-09-11T16:54:16.288Z,7.22
2022-09-11T16:56:46.158Z,8.77
2022-09-11T16:59:16.792Z,7.60
2022-09-11T17:01:45.183Z,5.72
2022-09-11T17:04:13.068Z,6.68
2022-09-11T17:06:40.886Z,5.32
2022-09-11T17:09:08.702Z,8.73
2022-09-11T17:11:37.190Z,7.18
2022-09-11T17:14:05.474Z,5.65
2022-09-11T17:16:35.797Z,5.32
2022-09-11T17:19:04.166Z,7.10
2022-09-11T17:21:35.998Z,6.07
2022-09-11T17:24:05.721Z,6.20
2022-09-11T17:26:34.412Z,6.70
2022-09-11T17:29:03.865Z,8.68
2022-09-11T17:31:32.519Z,10.25
2022-09-11T17:34:01.996Z,9.93
2022-09-11T17:36:29.885Z,9.43
2022-09-11T17:38:59.321Z,6.93
2022-09-11T17:41:27.209Z,7.38
2022-09-11T17:43:55.080Z,8.07
2022-09-11T17:46:24.744Z,6.40
2022-09-11T17:48:52.733Z,8.43
2022-09-11T17:51:24.088Z,7.30
2022-09-11T17:53:55.286Z,7.40
2022-09-11T17:56:25.291Z,7.22
2022-09-11T17:58:54.026Z,8.75
2022-09-11T18:01:22.743Z,7.60
2022-09-11T18:03:52.582Z,8.13
2022-09-11T18:06:26.127Z,6.97
2022-09-11T18:08:56.555Z,10.70
2022-09-11T18:11:24.896Z,11.60
2022-09-11T18:13:54.533Z,8.82
2022-09-11T18:16:22.472Z,7.80
2022-09-11T18:18:50.374Z,10.52
2022-09-11T18:21:18.319Z,10.05
2022-09-11T18:23:47.533Z,9.80
2022-09-11T18:26:23.038Z,8.10
2022-09-11T18:28:51.638Z,8.13
2022-09-11T18:31:20.147Z,9.07
2022-09-11T18:33:54.554Z,8.55
2022-09-11T18:36:23.495Z,10.02
2022-09-11T18:38:53.762Z,10.43
2022-09-11T18:41:23.258Z,10.90
2022-09-11T18:43:55.515Z,14.05
2022-09-11T18:46:23.922Z,9.52
2022-09-11T18:48:52.645Z,11.82
2022-09-11T18:51:21.268Z,15.07
2022-09-11T18:53:51.912Z,9.68
2022-09-11T18:56:22.630Z,10.50
2022-09-11T18:58:52.142Z,8.95
2022-09-11T19:01:23.994Z,9.13
2022-09-11T19:03:53.161Z,9.30
2022-09-11T19:06:23.234Z,10.07
2022-09-11T19:08:52.686Z,10.85
2022-09-11T19:11:23.670Z,12.45
2022-09-11T19:13:52.677Z,11.60
2022-09-11T19:16:22.374Z,10.38
2022-09-11T19:18:50.663Z,10.40
2022-09-11T19:21:20.759Z,11.65
2022-09-11T19:23:50.665Z,11.55
2022-09-11T19:26:21.885Z,18.15
2022-09-11T19:28:51.489Z,13.77
2022-09-11T19:31:21.529Z,9.65
2022-09-11T19:33:49.448Z,11.35
2022-09-11T19:36:20.032Z,10.00
2022-09-11T19:38:51.447Z,9.77
2022-09-11T19:41:23.622Z,11.27
2022-09-11T19:43:51.881Z,12.45
2022-09-11T19:46:22.029Z,11.00
2022-09-11T19:48:49.857Z,13.27
2022-09-11T19:51:21.175Z,10.18
2022-09-11T19:53:49.482Z,11.10
2022-09-11T19:56:17.769Z,14.40
2022-09-11T19:58:47.159Z,10.27
2022-09-11T20:01:18.066Z,12.30
2022-09-11T20:03:47.326Z,11.50
2022-09-11T20:06:16.667Z,14.20
2022-09-11T20:08:46.360Z,13.50
2022-09-11T20:11:16.011Z,13.15
2022-09-11T20:13:44.184Z,15.50
2022-09-11T20:16:15.899Z,14.23
2022-09-11T20:18:44.451Z,11.95
2022-09-11T20:21:15.525Z,13.15
2022-09-11T20:23:44.439Z,13.88
2022-09-11T20:26:17.231Z,16.38
2022-09-11T20:28:46.011Z,14.02
2022-09-11T20:31:16.637Z,14.45
2022-09-11T20:33:46.063Z,16.15
2022-09-11T20:36:14.354Z,18.75
2022-09-11T20:38:42.250Z,12.95
2022-09-11T20:41:11.396Z,14.90
2022-09-11T20:43:39.265Z,12.20
2022-09-11T20:46:07.978Z,14.18
2022-09-11T20:48:37.186Z,16.45
2022-09-11T20:51:06.647Z,13.95
2022-09-11T20:53:34.635Z,14.15
2022-09-11T20:56:04.032Z,16.80
2022-09-11T20:58:32.137Z,14.55
2022-09-11T21:01:00.783Z,15.27
2022-09-11T21:03:29.805Z,14.18
2022-09-11T21:06:00.543Z,14.45
2022-09-11T21:08:28.486Z,12.88
2022-09-11T21:10:56.308Z,15.50
2022-09-11T21:13:24.138Z,15.05
2022-09-11T21:15:52.031Z,15.23
2022-09-11T21:18:19.910Z,14.75
2022-09-11T21:20:54.859Z,17.48
2022-09-11T21:23:24.580Z,13.20
2022-09-11T21:25:52.941Z,15.05
2022-09-11T21:28:21.032Z,13.85
2022-09-11T21:30:48.859Z,14.77
2022-09-11T21:33:16.691Z,16.52
2022-09-11T21:35:44.697Z,12.82
2022-09-11T21:38:12.518Z,15.00
2022-09-11T21:40:42.018Z,15.20
2022-09-11T21:43:09.855Z,16.95
2022-09-11T21:45:37.670Z,18.95
2022-09-11T21:48:05.735Z,13.35
2022-09-11T21:50:33.550Z,17.50
2022-09-11T21:53:01.337Z,13.13
2022-09-11T21:55:29.233Z,12.02
2022-09-11T21:57:59.059Z,15.52
2022-09-11T22:00:26.967Z,16.38
2022-09-11T22:02:54.822Z,19.23
2022-09-11T22:05:23.420Z,13.98
2022-09-11T22:07:51.263Z,15.70
2022-09-11T22:10:19.310Z,13.73
2022-09-11T22:12:47.231Z,14.98
2022-09-11T22:15:16.546Z,13.93
2022-09-11T22:17:44.510Z,14.55
2022-09-11T22:20:12.367Z,12.73
2022-09-11T22:22:40.673Z,15.32
2022-09-11T22:25:09.835Z,14.18
2022-09-11T22:27:37.744Z,26.08
2022-09-11T22:30:08.454Z,15.25
2022-09-11T22:32:37.904Z,13.38
2022-09-11T22:35:06.325Z,15.27
2022-09-11T22:37:34.310Z,14.43
2022-09-11T22:40:04.443Z,13.93
2022-09-11T22:42:32.394Z,12.95
2022-09-11T22:45:00.365Z,13.02
2022-09-11T22:47:28.518Z,17.33
2022-09-11T22:49:57.662Z,20.05
2022-09-11T22:52:25.593Z,17.30
2022-09-11T22:54:53.442Z,13.82
2022-09-11T22:57:21.305Z,17.10
2022-09-11T22:59:49.130Z,13.10
2022-09-11T23:02:17.068Z,14.45
2022-09-11T23:05:05.272Z,15.57
2022-09-11T23:07:33.814Z,15.07
2022-09-11T23:10:01.872Z,12.50
2022-09-11T23:12:29.726Z,11.90
2022-09-11T23:14:58.141Z,13.23
2022-09-11T23:17:26.988Z,13.30
2022-09-11T23:19:54.814Z,12.60
2022-09-11T23:22:22.905Z,17.92
2022-09-11T23:24:52.025Z,15.73
2022-09-11T23:27:19.994Z,16.80
2022-09-11T23:29:47.837Z,15.13
2022-09-11T23:32:15.681Z,15.93
2022-09-11T23:34:43.548Z,17.77
2022-09-11T23:37:11.378Z,18.42
2022-09-11T23:39:39.292Z,17.02
2022-09-11T23:42:08.685Z,19.85
2022-09-11T23:44:36.513Z,15.85
2022-09-11T23:47:04.460Z,15.77
2022-09-11T23:49:36.192Z,15.15
2022-09-11T23:52:05.859Z,15.65
2022-09-11T23:54:33.747Z,14.65
2022-09-11T23:57:01.574Z,22.92
2022-09-11T23:59:35.647Z,16.05
